sensor_id;sensor_type;location;lat;lon;timestamp;P1;durP1;ratioP1;P2;durP2;ratioP2
1336;SDS011;662;48.814;9.318;2023-06-26T00:00:34;7.20;;;6.33;;
1336;SDS011;662;48.814;9.318;2023-06-26T00:02:59;6.20;;;5.27;;
1336;SDS011;662;48.814;9.318;2023-06-26T00:05:25;8.60;;;6.47;;
1336;SDS011;662;48.814;9.318;2023-06-26T00:07:52;7.50;;;6.33;;
1336;SDS011;662;48.814;9.318;2023-06-26T00:10:18;7.80;;;5.50;;
1336;SDS011;662;48.814;9.318;2023-06-26T00:12:44;9.30;;;6.40;;
1336;SDS011;662;48.814;9.318;2023-06-26T00:15:09;6.73;;;5.97;;
1336;SDS011;662;48.814;9.318;2023-06-26T00:17:35;7.67;;;6.13;;
1336;SDS011;662;48.814;9.318;2023-06-26T00:20:02;6.87;;;6.00;;
1336;SDS011;662;48.814;9.318;2023-06-26T00:22:30;7.17;;;6.00;;
1336;SDS011;662;48.814;9.318;2023-06-26T00:24:56;6.33;;;5.70;;
1336;SDS011;662;48.814;9.318;2023-06-26T00:27:21;8.03;;;6.70;;
1336;SDS011;662;48.814;9.318;2023-06-26T00:29:47;7.80;;;6.00;;
1336;SDS011;662;48.814;9.318;2023-06-26T00:32:12;7.70;;;6.57;;
1336;SDS011;662;48.814;9.318;2023-06-26T00:34:38;9.20;;;6.50;;
1336;SDS011;662;48.814;9.318;2023-06-26T00:37:04;7.17;;;6.07;;
1336;SDS011;662;48.814;9.318;2023-06-26T00:39:29;8.00;;;6.30;;
1336;SDS011;662;48.814;9.318;2023-06-26T00:41:55;8.43;;;6.67;;
1336;SDS011;662;48.814;9.318;2023-06-26T00:44:20;6.43;;;5.80;;
1336;SDS011;662;48.814;9.318;2023-06-26T00:46:46;7.43;;;5.80;;
1336;SDS011;662;48.814;9.318;2023-06-26T00:49:12;6.97;;;6.23;;
1336;SDS011;662;48.814;9.318;2023-06-26T00:51:38;7.73;;;6.53;;
1336;SDS011;662;48.814;9.318;2023-06-26T00:54:04;7.53;;;6.53;;
1336;SDS011;662;48.814;9.318;2023-06-26T00:56:31;6.93;;;6.23;;
1336;SDS011;662;48.814;9.318;2023-06-26T00:58:57;6.60;;;6.00;;
1336;SDS011;662;48.814;9.318;2023-06-26T01:01:23;8.93;;;6.30;;
1336;SDS011;662;48.814;9.318;2023-06-26T01:03:50;6.50;;;5.83;;
1336;SDS011;662;48.814;9.318;2023-06-26T01:06:18;7.00;;;6.00;;
1336;SDS011;662;48.814;9.318;2023-06-26T01:08:45;7.10;;;5.93;;
1336;SDS011;662;48.814;9.318;2023-06-26T01:11:12;7.60;;;6.43;;
1336;SDS011;662;48.814;9.318;2023-06-26T01:13:40;7.33;;;6.20;;
1336;SDS011;662;48.814;9.318;2023-06-26T01:16:08;8.07;;;6.60;;
1336;SDS011;662;48.814;9.318;2023-06-26T01:18:35;10.40;;;6.93;;
1336;SDS011;662;48.814;9.318;2023-06-26T01:21:07;7.30;;;6.37;;
1336;SDS011;662;48.814;9.318;2023-06-26T01:23:39;8.80;;;6.77;;
1336;SDS011;662;48.814;9.318;2023-06-26T01:26:20;7.40;;;6.60;;
1336;SDS011;662;48.814;9.318;2023-06-26T01:28:47;7.83;;;5.83;;
1336;SDS011;662;48.814;9.318;2023-06-26T01:31:14;7.30;;;6.30;;
1336;SDS011;662;48.814;9.318;2023-06-26T01:33:40;7.27;;;6.43;;
1336;SDS011;662;48.814;9.318;2023-06-26T01:36:06;7.73;;;6.50;;
1336;SDS011;662;48.814;9.318;2023-06-26T01:38:32;8.80;;;6.30;;
1336;SDS011;662;48.814;9.318;2023-06-26T01:40:59;6.57;;;5.90;;
1336;SDS011;662;48.814;9.318;2023-06-26T01:43:27;8.07;;;6.43;;
1336;SDS011;662;48.814;9.318;2023-06-26T01:46:06;7.27;;;6.50;;
1336;SDS011;662;48.814;9.318;2023-06-26T01:55:01;9.07;;;7.40;;
1336;SDS011;662;48.814;9.318;2023-06-26T01:57:33;7.83;;;7.03;;
1336;SDS011;662;48.814;9.318;2023-06-26T02:00:01;7.73;;;6.10;;
1336;SDS011;662;48.814;9.318;2023-06-26T02:02:28;7.77;;;6.47;;
1336;SDS011;662;48.814;9.318;2023-06-26T02:04:54;7.80;;;6.73;;
1336;SDS011;662;48.814;9.318;2023-06-26T02:07:20;9.43;;;6.80;;
1336;SDS011;662;48.814;9.318;2023-06-26T02:09:46;7.90;;;6.47;;
1336;SDS011;662;48.814;9.318;2023-06-26T02:12:11;7.83;;;6.87;;
1336;SDS011;662;48.814;9.318;2023-06-26T02:14:37;8.10;;;6.73;;
1336;SDS011;662;48.814;9.318;2023-06-26T02:17:03;7.27;;;6.20;;
1336;SDS011;662;48.814;9.318;2023-06-26T02:19:29;7.83;;;6.47;;
1336;SDS011;662;48.814;9.318;2023-06-26T02:21:54;6.97;;;6.27;;
1336;SDS011;662;48.814;9.318;2023-06-26T02:24:20;7.33;;;6.00;;
1336;SDS011;662;48.814;9.318;2023-06-26T02:26:46;8.37;;;6.83;;
1336;SDS011;662;48.814;9.318;2023-06-26T02:29:12;7.53;;;6.83;;
1336;SDS011;662;48.814;9.318;2023-06-26T02:31:37;6.93;;;6.23;;
1336;SDS011;662;48.814;9.318;2023-06-26T02:34:03;7.73;;;6.60;;
1336;SDS011;662;48.814;9.318;2023-06-26T02:36:29;7.33;;;6.00;;
1336;SDS011;662;48.814;9.318;2023-06-26T02:38:55;7.90;;;6.40;;
1336;SDS011;662;48.814;9.318;2023-06-26T02:41:20;8.30;;;7.30;;
1336;SDS011;662;48.814;9.318;2023-06-26T02:43:46;7.90;;;5.80;;
1336;SDS011;662;48.814;9.318;2023-06-26T02:46:12;7.83;;;7.00;;
1336;SDS011;662;48.814;9.318;2023-06-26T02:48:37;9.40;;;7.70;;
1336;SDS011;662;48.814;9.318;2023-06-26T02:51:03;7.30;;;6.00;;
1336;SDS011;662;48.814;9.318;2023-06-26T02:53:29;8.37;;;6.60;;
1336;SDS011;662;48.814;9.318;2023-06-26T02:55:56;7.70;;;6.90;;
1336;SDS011;662;48.814;9.318;2023-06-26T02:58:21;8.10;;;6.77;;
1336;SDS011;662;48.814;9.318;2023-06-26T03:00:47;6.23;;;5.63;;
1336;SDS011;662;48.814;9.318;2023-06-26T03:03:13;7.50;;;6.30;;
1336;SDS011;662;48.814;9.318;2023-06-26T03:05:39;7.33;;;6.57;;
1336;SDS011;662;48.814;9.318;2023-06-26T03:08:04;8.20;;;6.97;;
1336;SDS011;662;48.814;9.318;2023-06-26T03:10:30;8.27;;;7.33;;
1336;SDS011;662;48.814;9.318;2023-06-26T03:12:56;7.33;;;6.30;;
1336;SDS011;662;48.814;9.318;2023-06-26T03:15:21;7.90;;;6.83;;
1336;SDS011;662;48.814;9.318;2023-06-26T03:17:47;7.17;;;6.47;;
1336;SDS011;662;48.814;9.318;2023-06-26T03:20:13;7.03;;;6.33;;
1336;SDS011;662;48.814;9.318;2023-06-26T03:22:40;7.70;;;6.33;;
1336;SDS011;662;48.814;9.318;2023-06-26T03:25:06;7.77;;;6.93;;
1336;SDS011;662;48.814;9.318;2023-06-26T03:27:32;7.37;;;6.10;;
1336;SDS011;662;48.814;9.318;2023-06-26T03:29:57;7.33;;;6.53;;
1336;SDS011;662;48.814;9.318;2023-06-26T03:32:23;7.83;;;6.93;;
1336;SDS011;662;48.814;9.318;2023-06-26T03:34:48;7.43;;;6.60;;
1336;SDS011;662;48.814;9.318;2023-06-26T03:37:14;8.10;;;6.87;;
1336;SDS011;662;48.814;9.318;2023-06-26T03:39:40;7.30;;;6.60;;
1336;SDS011;662;48.814;9.318;2023-06-26T03:42:06;7.17;;;6.30;;
1336;SDS011;662;48.814;9.318;2023-06-26T03:44:32;9.20;;;7.30;;
1336;SDS011;662;48.814;9.318;2023-06-26T03:46:58;8.10;;;6.57;;
1336;SDS011;662;48.814;9.318;2023-06-26T03:49:23;7.10;;;6.20;;
1336;SDS011;662;48.814;9.318;2023-06-26T03:51:49;9.37;;;6.77;;
1336;SDS011;662;48.814;9.318;2023-06-26T03:54:14;7.50;;;6.33;;
1336;SDS011;662;48.814;9.318;2023-06-26T03:56:40;8.27;;;6.80;;
1336;SDS011;662;48.814;9.318;2023-06-26T03:59:06;7.80;;;6.60;;
1336;SDS011;662;48.814;9.318;2023-06-26T04:01:31;8.60;;;6.70;;
1336;SDS011;662;48.814;9.318;2023-06-26T04:03:57;8.40;;;6.90;;
1336;SDS011;662;48.814;9.318;2023-06-26T04:06:23;7.40;;;5.87;;
1336;SDS011;662;48.814;9.318;2023-06-26T04:08:48;7.90;;;7.10;;
1336;SDS011;662;48.814;9.318;2023-06-26T04:11:14;8.80;;;7.30;;
1336;SDS011;662;48.814;9.318;2023-06-26T04:13:39;6.73;;;5.80;;
1336;SDS011;662;48.814;9.318;2023-06-26T04:16:05;7.90;;;7.10;;
1336;SDS011;662;48.814;9.318;2023-06-26T04:18:31;7.40;;;6.70;;
1336;SDS011;662;48.814;9.318;2023-06-26T04:21:30;7.80;;;6.43;;
1336;SDS011;662;48.814;9.318;2023-06-26T04:23:49;11.77;;;6.63;;
1336;SDS011;662;48.814;9.318;2023-06-26T04:26:16;7.97;;;6.93;;
1336;SDS011;662;48.814;9.318;2023-06-26T04:28:41;8.70;;;6.50;;
1336;SDS011;662;48.814;9.318;2023-06-26T04:31:08;8.20;;;6.97;;
1336;SDS011;662;48.814;9.318;2023-06-26T04:33:34;9.30;;;7.47;;
1336;SDS011;662;48.814;9.318;2023-06-26T04:36:03;8.27;;;7.43;;
1336;SDS011;662;48.814;9.318;2023-06-26T04:38:30;7.80;;;6.73;;
1336;SDS011;662;48.814;9.318;2023-06-26T04:40:59;9.07;;;7.90;;
1336;SDS011;662;48.814;9.318;2023-06-26T04:43:27;8.20;;;6.80;;
1336;SDS011;662;48.814;9.318;2023-06-26T04:45:53;9.17;;;7.87;;
1336;SDS011;662;48.814;9.318;2023-06-26T04:48:18;9.60;;;7.80;;
1336;SDS011;662;48.814;9.318;2023-06-26T04:50:44;9.60;;;7.73;;
1336;SDS011;662;48.814;9.318;2023-06-26T04:53:17;11.57;;;7.87;;
1336;SDS011;662;48.814;9.318;2023-06-26T04:55:43;8.30;;;7.30;;
1336;SDS011;662;48.814;9.318;2023-06-26T04:58:09;8.20;;;7.00;;
1336;SDS011;662;48.814;9.318;2023-06-26T05:00:34;8.00;;;6.43;;
1336;SDS011;662;48.814;9.318;2023-06-26T05:03:00;7.20;;;6.40;;
1336;SDS011;662;48.814;9.318;2023-06-26T05:05:29;8.33;;;6.60;;
1336;SDS011;662;48.814;9.318;2023-06-26T05:07:55;8.37;;;7.10;;
1336;SDS011;662;48.814;9.318;2023-06-26T05:10:21;9.10;;;7.53;;
1336;SDS011;662;48.814;9.318;2023-06-26T05:12:47;9.70;;;7.33;;
1336;SDS011;662;48.814;9.318;2023-06-26T05:15:13;8.23;;;7.10;;
1336;SDS011;662;48.814;9.318;2023-06-26T05:17:38;9.63;;;8.13;;
1336;SDS011;662;48.814;9.318;2023-06-26T05:20:04;9.93;;;7.90;;
1336;SDS011;662;48.814;9.318;2023-06-26T05:22:31;9.20;;;6.60;;
1336;SDS011;662;48.814;9.318;2023-06-26T05:24:58;9.57;;;7.20;;
1336;SDS011;662;48.814;9.318;2023-06-26T05:27:26;9.07;;;6.70;;
1336;SDS011;662;48.814;9.318;2023-06-26T05:29:51;8.23;;;6.83;;
1336;SDS011;662;48.814;9.318;2023-06-26T05:32:17;7.77;;;6.97;;
1336;SDS011;662;48.814;9.318;2023-06-26T05:34:49;6.57;;;5.93;;
1336;SDS011;662;48.814;9.318;2023-06-26T05:37:20;9.40;;;7.23;;
1336;SDS011;662;48.814;9.318;2023-06-26T05:39:47;9.53;;;7.20;;
1336;SDS011;662;48.814;9.318;2023-06-26T05:42:13;8.17;;;6.73;;
1336;SDS011;662;48.814;9.318;2023-06-26T05:44:39;11.60;;;7.50;;
1336;SDS011;662;48.814;9.318;2023-06-26T05:47:05;9.93;;;7.67;;
1336;SDS011;662;48.814;9.318;2023-06-26T05:49:31;7.97;;;6.70;;
1336;SDS011;662;48.814;9.318;2023-06-26T05:51:57;13.80;;;8.10;;
1336;SDS011;662;48.814;9.318;2023-06-26T05:54:23;21.37;;;10.20;;
1336;SDS011;662;48.814;9.318;2023-06-26T05:56:50;10.77;;;8.27;;
1336;SDS011;662;48.814;9.318;2023-06-26T05:59:21;9.33;;;7.40;;
1336;SDS011;662;48.814;9.318;2023-06-26T06:01:47;12.93;;;8.20;;
1336;SDS011;662;48.814;9.318;2023-06-26T06:04:13;10.30;;;7.50;;
1336;SDS011;662;48.814;9.318;2023-06-26T06:06:39;7.50;;;6.13;;
1336;SDS011;662;48.814;9.318;2023-06-26T06:09:04;8.47;;;6.33;;
1336;SDS011;662;48.814;9.318;2023-06-26T06:11:30;7.10;;;6.37;;
1336;SDS011;662;48.814;9.318;2023-06-26T06:13:55;8.37;;;6.67;;
1336;SDS011;662;48.814;9.318;2023-06-26T06:16:23;7.50;;;6.80;;
1336;SDS011;662;48.814;9.318;2023-06-26T06:18:49;7.00;;;6.00;;
1336;SDS011;662;48.814;9.318;2023-06-26T06:21:15;9.20;;;7.30;;
1336;SDS011;662;48.814;9.318;2023-06-26T06:23:40;8.37;;;7.37;;
1336;SDS011;662;48.814;9.318;2023-06-26T06:26:06;8.97;;;7.27;;
1336;SDS011;662;48.814;9.318;2023-06-26T06:28:31;9.40;;;6.93;;
1336;SDS011;662;48.814;9.318;2023-06-26T06:30:57;9.07;;;7.10;;
1336;SDS011;662;48.814;9.318;2023-06-26T06:33:23;7.60;;;6.80;;
1336;SDS011;662;48.814;9.318;2023-06-26T06:35:48;7.17;;;6.30;;
1336;SDS011;662;48.814;9.318;2023-06-26T06:38:14;9.53;;;6.00;;
1336;SDS011;662;48.814;9.318;2023-06-26T06:40:39;6.93;;;5.83;;
1336;SDS011;662;48.814;9.318;2023-06-26T06:43:05;8.03;;;6.73;;
1336;SDS011;662;48.814;9.318;2023-06-26T06:45:31;6.90;;;5.70;;
1336;SDS011;662;48.814;9.318;2023-06-26T06:47:56;8.17;;;7.10;;
1336;SDS011;662;48.814;9.318;2023-06-26T06:50:22;6.63;;;6.00;;
1336;SDS011;662;48.814;9.318;2023-06-26T06:52:48;7.73;;;6.67;;
1336;SDS011;662;48.814;9.318;2023-06-26T06:55:13;6.27;;;5.67;;
1336;SDS011;662;48.814;9.318;2023-06-26T06:57:39;8.13;;;6.80;;
1336;SDS011;662;48.814;9.318;2023-06-26T07:00:06;7.80;;;7.00;;
1336;SDS011;662;48.814;9.318;2023-06-26T07:02:34;7.70;;;6.67;;
1336;SDS011;662;48.814;9.318;2023-06-26T07:05:01;7.67;;;6.40;;
1336;SDS011;662;48.814;9.318;2023-06-26T07:07:28;8.10;;;6.47;;
1336;SDS011;662;48.814;9.318;2023-06-26T07:09:59;10.50;;;6.60;;
1336;SDS011;662;48.814;9.318;2023-06-26T07:12:26;10.43;;;6.43;;
1336;SDS011;662;48.814;9.318;2023-06-26T07:14:52;7.53;;;6.60;;
1336;SDS011;662;48.814;9.318;2023-06-26T07:17:18;6.80;;;6.10;;
1336;SDS011;662;48.814;9.318;2023-06-26T07:19:45;7.93;;;6.70;;
1336;SDS011;662;48.814;9.318;2023-06-26T07:22:11;7.23;;;6.53;;
1336;SDS011;662;48.814;9.318;2023-06-26T07:24:37;6.60;;;6.00;;
1336;SDS011;662;48.814;9.318;2023-06-26T07:27:02;9.10;;;6.53;;
1336;SDS011;662;48.814;9.318;2023-06-26T07:29:28;6.40;;;5.80;;
1336;SDS011;662;48.814;9.318;2023-06-26T07:31:54;7.30;;;6.57;;
1336;SDS011;662;48.814;9.318;2023-06-26T07:34:19;6.17;;;5.57;;
1336;SDS011;662;48.814;9.318;2023-06-26T07:36:45;6.37;;;5.77;;
1336;SDS011;662;48.814;9.318;2023-06-26T07:39:11;6.47;;;5.87;;
1336;SDS011;662;48.814;9.318;2023-06-26T07:41:36;8.60;;;6.13;;
1336;SDS011;662;48.814;9.318;2023-06-26T07:44:03;8.90;;;6.47;;
1336;SDS011;662;48.814;9.318;2023-06-26T07:46:29;6.60;;;5.97;;
1336;SDS011;662;48.814;9.318;2023-06-26T07:48:54;7.20;;;6.50;;
1336;SDS011;662;48.814;9.318;2023-06-26T07:51:20;10.53;;;6.80;;
1336;SDS011;662;48.814;9.318;2023-06-26T07:53:46;6.20;;;5.60;;
1336;SDS011;662;48.814;9.318;2023-06-26T07:56:12;7.17;;;6.40;;
1336;SDS011;662;48.814;9.318;2023-06-26T07:58:37;7.27;;;6.37;;
1336;SDS011;662;48.814;9.318;2023-06-26T08:01:03;7.63;;;6.40;;
1336;SDS011;662;48.814;9.318;2023-06-26T08:03:29;8.13;;;6.00;;
1336;SDS011;662;48.814;9.318;2023-06-26T08:05:54;7.00;;;6.27;;
1336;SDS011;662;48.814;9.318;2023-06-26T08:08:20;6.93;;;6.20;;
1336;SDS011;662;48.814;9.318;2023-06-26T08:10:46;6.33;;;5.73;;
1336;SDS011;662;48.814;9.318;2023-06-26T08:13:11;6.87;;;6.20;;
1336;SDS011;662;48.814;9.318;2023-06-26T08:15:37;9.23;;;6.50;;
1336;SDS011;662;48.814;9.318;2023-06-26T08:18:04;6.73;;;6.03;;
1336;SDS011;662;48.814;9.318;2023-06-26T08:20:30;6.53;;;5.93;;
1336;SDS011;662;48.814;9.318;2023-06-26T08:22:55;6.07;;;5.47;;
1336;SDS011;662;48.814;9.318;2023-06-26T08:25:21;6.87;;;6.17;;
1336;SDS011;662;48.814;9.318;2023-06-26T08:27:47;6.40;;;5.67;;
1336;SDS011;662;48.814;9.318;2023-06-26T08:30:13;7.63;;;5.90;;
1336;SDS011;662;48.814;9.318;2023-06-26T08:32:39;6.67;;;5.97;;
1336;SDS011;662;48.814;9.318;2023-06-26T08:35:05;5.87;;;5.37;;
1336;SDS011;662;48.814;9.318;2023-06-26T08:37:32;6.97;;;6.27;;
1336;SDS011;662;48.814;9.318;2023-06-26T08:40:00;6.37;;;5.77;;
1336;SDS011;662;48.814;9.318;2023-06-26T08:42:26;6.20;;;5.60;;
1336;SDS011;662;48.814;9.318;2023-06-26T08:44:52;7.80;;;5.70;;
1336;SDS011;662;48.814;9.318;2023-06-26T08:47:17;6.43;;;5.63;;
1336;SDS011;662;48.814;9.318;2023-06-26T08:49:51;6.50;;;5.80;;
1336;SDS011;662;48.814;9.318;2023-06-26T08:52:24;6.07;;;5.47;;
1336;SDS011;662;48.814;9.318;2023-06-26T08:54:56;7.10;;;6.37;;
1336;SDS011;662;48.814;9.318;2023-06-26T08:57:23;6.40;;;5.30;;
1336;SDS011;662;48.814;9.318;2023-06-26T08:59:51;6.20;;;5.60;;
1336;SDS011;662;48.814;9.318;2023-06-26T09:02:17;8.00;;;5.80;;
1336;SDS011;662;48.814;9.318;2023-06-26T09:04:45;7.10;;;5.67;;
1336;SDS011;662;48.814;9.318;2023-06-26T09:07:12;8.23;;;5.37;;
1336;SDS011;662;48.814;9.318;2023-06-26T09:09:38;6.50;;;5.20;;
1336;SDS011;662;48.814;9.318;2023-06-26T09:12:04;5.40;;;4.90;;
1336;SDS011;662;48.814;9.318;2023-06-26T09:14:30;5.83;;;5.10;;
1336;SDS011;662;48.814;9.318;2023-06-26T09:16:56;8.60;;;5.33;;
1336;SDS011;662;48.814;9.318;2023-06-26T09:19:22;6.40;;;5.80;;
1336;SDS011;662;48.814;9.318;2023-06-26T09:21:49;5.47;;;4.97;;
1336;SDS011;662;48.814;9.318;2023-06-26T09:24:16;6.13;;;5.53;;
1336;SDS011;662;48.814;9.318;2023-06-26T09:26:42;5.83;;;5.33;;
1336;SDS011;662;48.814;9.318;2023-06-26T09:29:08;4.90;;;4.50;;
1336;SDS011;662;48.814;9.318;2023-06-26T09:31:38;5.90;;;5.27;;
1336;SDS011;662;48.814;9.318;2023-06-26T09:34:04;7.13;;;5.10;;
1336;SDS011;662;48.814;9.318;2023-06-26T09:36:30;5.80;;;5.20;;
1336;SDS011;662;48.814;9.318;2023-06-26T09:38:58;5.30;;;4.80;;
1336;SDS011;662;48.814;9.318;2023-06-26T09:41:37;7.50;;;6.20;;
1336;SDS011;662;48.814;9.318;2023-06-26T09:44:03;5.90;;;5.40;;
1336;SDS011;662;48.814;9.318;2023-06-26T09:46:30;5.20;;;4.70;;
1336;SDS011;662;48.814;9.318;2023-06-26T09:49:01;6.03;;;5.37;;
1336;SDS011;662;48.814;9.318;2023-06-26T09:51:32;5.40;;;4.90;;
1336;SDS011;662;48.814;9.318;2023-06-26T09:53:59;6.30;;;4.97;;
1336;SDS011;662;48.814;9.318;2023-06-26T09:56:26;9.40;;;5.37;;
1336;SDS011;662;48.814;9.318;2023-06-26T09:58:55;5.63;;;5.13;;
1336;SDS011;662;48.814;9.318;2023-06-26T10:01:25;5.30;;;4.87;;
1336;SDS011;662;48.814;9.318;2023-06-26T10:03:51;5.63;;;5.17;;
1336;SDS011;662;48.814;9.318;2023-06-26T10:06:22;5.27;;;4.77;;
1336;SDS011;662;48.814;9.318;2023-06-26T10:09:00;5.00;;;4.60;;
1336;SDS011;662;48.814;9.318;2023-06-26T10:11:37;5.43;;;4.93;;
1336;SDS011;662;48.814;9.318;2023-06-26T10:14:27;5.27;;;4.77;;
1336;SDS011;662;48.814;9.318;2023-06-26T10:17:03;5.57;;;5.07;;
1336;SDS011;662;48.814;9.318;2023-06-26T10:19:32;5.60;;;5.10;;
1336;SDS011;662;48.814;9.318;2023-06-26T10:21:59;5.70;;;5.20;;
1336;SDS011;662;48.814;9.318;2023-06-26T10:24:28;7.20;;;5.83;;
1336;SDS011;662;48.814;9.318;2023-06-26T10:29:46;5.47;;;4.80;;
1336;SDS011;662;48.814;9.318;2023-06-26T10:32:15;5.35;;;4.95;;
1336;SDS011;662;48.814;9.318;2023-06-26T10:34:42;5.60;;;5.07;;
1336;SDS011;662;48.814;9.318;2023-06-26T10:37:08;7.68;;;5.60;;
1336;SDS011;662;48.814;9.318;2023-06-26T10:39:52;6.07;;;5.38;;
1336;SDS011;662;48.814;9.318;2023-06-26T10:42:33;6.33;;;5.73;;
1336;SDS011;662;48.814;9.318;2023-06-26T10:45:17;6.53;;;5.97;;
1336;SDS011;662;48.814;9.318;2023-06-26T10:47:48;6.60;;;6.03;;
1336;SDS011;662;48.814;9.318;2023-06-26T10:55:36;6.57;;;5.97;;
1336;SDS011;662;48.814;9.318;2023-06-26T10:58:02;6.47;;;5.87;;
1336;SDS011;662;48.814;9.318;2023-06-26T11:00:28;7.87;;;5.53;;
1336;SDS011;662;48.814;9.318;2023-06-26T11:02:53;5.43;;;4.93;;
1336;SDS011;662;48.814;9.318;2023-06-26T11:08:05;6.50;;;5.70;;
1336;SDS011;662;48.814;9.318;2023-06-26T11:13:18;6.40;;;5.90;;
1336;SDS011;662;48.814;9.318;2023-06-26T11:15:49;6.50;;;5.90;;
1336;SDS011;662;48.814;9.318;2023-06-26T11:18:15;5.70;;;5.20;;
1336;SDS011;662;48.814;9.318;2023-06-26T11:20:41;6.63;;;6.00;;
1336;SDS011;662;48.814;9.318;2023-06-26T11:23:07;6.80;;;6.10;;
1336;SDS011;662;48.814;9.318;2023-06-26T11:25:34;6.47;;;5.87;;
1336;SDS011;662;48.814;9.318;2023-06-26T11:28:02;8.37;;;5.80;;
1336;SDS011;662;48.814;9.318;2023-06-26T11:30:29;6.43;;;5.90;;
1336;SDS011;662;48.814;9.318;2023-06-26T11:33:05;5.85;;;5.45;;
1336;SDS011;662;48.814;9.318;2023-06-26T11:35:31;6.97;;;6.28;;
1336;SDS011;662;48.814;9.318;2023-06-26T11:37:57;6.22;;;5.55;;
1336;SDS011;662;48.814;9.318;2023-06-26T11:40:31;6.68;;;6.10;;
1336;SDS011;662;48.814;9.318;2023-06-26T11:43:00;5.93;;;5.43;;
1336;SDS011;662;48.814;9.318;2023-06-26T11:45:28;6.22;;;5.72;;
1336;SDS011;662;48.814;9.318;2023-06-26T11:47:55;6.13;;;5.63;;
1336;SDS011;662;48.814;9.318;2023-06-26T11:50:22;6.78;;;6.18;;
1336;SDS011;662;48.814;9.318;2023-06-26T11:52:53;8.27;;;5.82;;
1336;SDS011;662;48.814;9.318;2023-06-26T11:55:22;6.20;;;5.60;;
1336;SDS011;662;48.814;9.318;2023-06-26T11:57:58;7.95;;;5.50;;
1336;SDS011;662;48.814;9.318;2023-06-26T12:00:23;6.28;;;5.78;;
1336;SDS011;662;48.814;9.318;2023-06-26T12:02:49;5.90;;;5.45;;
1336;SDS011;662;48.814;9.318;2023-06-26T12:05:16;6.55;;;5.95;;
1336;SDS011;662;48.814;9.318;2023-06-26T12:07:43;8.23;;;5.10;;
1336;SDS011;662;48.814;9.318;2023-06-26T12:10:10;5.90;;;5.28;;
1336;SDS011;662;48.814;9.318;2023-06-26T12:12:37;5.75;;;5.25;;
1336;SDS011;662;48.814;9.318;2023-06-26T12:15:03;6.55;;;5.88;;
1336;SDS011;662;48.814;9.318;2023-06-26T12:17:30;5.55;;;5.13;;
1336;SDS011;662;48.814;9.318;2023-06-26T12:19:56;6.45;;;5.85;;
1336;SDS011;662;48.814;9.318;2023-06-26T12:22:21;8.15;;;5.47;;
1336;SDS011;662;48.814;9.318;2023-06-26T12:24:48;6.43;;;5.82;;
1336;SDS011;662;48.814;9.318;2023-06-26T12:27:15;6.38;;;5.88;;
1336;SDS011;662;48.814;9.318;2023-06-26T12:29:49;6.75;;;6.22;;
1336;SDS011;662;48.814;9.318;2023-06-26T12:32:17;5.93;;;5.47;;
1336;SDS011;662;48.814;9.318;2023-06-26T12:34:46;6.10;;;5.60;;
1336;SDS011;662;48.814;9.318;2023-06-26T12:37:14;5.60;;;5.10;;
1336;SDS011;662;48.814;9.318;2023-06-26T12:39:47;7.00;;;6.40;;
1336;SDS011;662;48.814;9.318;2023-06-26T12:42:25;5.43;;;4.87;;
1336;SDS011;662;48.814;9.318;2023-06-26T12:44:52;6.73;;;5.57;;
1336;SDS011;662;48.814;9.318;2023-06-26T12:47:28;6.67;;;5.10;;
1336;SDS011;662;48.814;9.318;2023-06-26T12:49:55;6.50;;;5.83;;
1336;SDS011;662;48.814;9.318;2023-06-26T12:52:22;5.53;;;5.13;;
1336;SDS011;662;48.814;9.318;2023-06-26T12:54:51;5.97;;;5.47;;
1336;SDS011;662;48.814;9.318;2023-06-26T12:57:18;5.70;;;5.13;;
1336;SDS011;662;48.814;9.318;2023-06-26T12:59:43;6.53;;;5.75;;
1336;SDS011;662;48.814;9.318;2023-06-26T13:02:09;6.32;;;5.30;;
1336;SDS011;662;48.814;9.318;2023-06-26T13:04:38;6.10;;;5.60;;
1336;SDS011;662;48.814;9.318;2023-06-26T13:07:09;7.57;;;5.78;;
1336;SDS011;662;48.814;9.318;2023-06-26T13:09:36;6.03;;;5.53;;
1336;SDS011;662;48.814;9.318;2023-06-26T13:12:02;5.75;;;5.28;;
1336;SDS011;662;48.814;9.318;2023-06-26T13:14:29;6.38;;;5.78;;
1336;SDS011;662;48.814;9.318;2023-06-26T13:16:55;5.88;;;5.38;;
1336;SDS011;662;48.814;9.318;2023-06-26T13:19:21;5.68;;;5.18;;
1336;SDS011;662;48.814;9.318;2023-06-26T13:21:47;6.50;;;5.18;;
1336;SDS011;662;48.814;9.318;2023-06-26T13:24:12;5.40;;;5.00;;
1336;SDS011;662;48.814;9.318;2023-06-26T13:26:38;5.40;;;4.90;;
1336;SDS011;662;48.814;9.318;2023-06-26T13:29:04;5.68;;;5.10;;
1336;SDS011;662;48.814;9.318;2023-06-26T13:31:30;5.28;;;4.80;;
1336;SDS011;662;48.814;9.318;2023-06-26T13:33:59;4.60;;;4.25;;
1336;SDS011;662;48.814;9.318;2023-06-26T13:36:25;5.85;;;5.28;;
1336;SDS011;662;48.814;9.318;2023-06-26T13:38:51;5.95;;;4.63;;
1336;SDS011;662;48.814;9.318;2023-06-26T13:41:24;4.65;;;4.25;;
1336;SDS011;662;48.814;9.318;2023-06-26T13:43:52;5.68;;;5.07;;
1336;SDS011;662;48.814;9.318;2023-06-26T13:46:17;4.95;;;4.47;;
1336;SDS011;662;48.814;9.318;2023-06-26T13:48:44;4.65;;;4.25;;
1336;SDS011;662;48.814;9.318;2023-06-26T13:51:10;4.82;;;4.38;;
1336;SDS011;662;48.814;9.318;2023-06-26T13:53:36;4.60;;;4.10;;
1336;SDS011;662;48.814;9.318;2023-06-26T13:56:01;6.28;;;4.40;;
1336;SDS011;662;48.814;9.318;2023-06-26T13:58:27;4.22;;;3.92;;
1336;SDS011;662;48.814;9.318;2023-06-26T14:00:54;5.03;;;4.63;;
1336;SDS011;662;48.814;9.318;2023-06-26T14:03:20;5.00;;;4.60;;
1336;SDS011;662;48.814;9.318;2023-06-26T14:05:46;5.07;;;4.65;;
1336;SDS011;662;48.814;9.318;2023-06-26T14:08:12;4.18;;;3.85;;
1336;SDS011;662;48.814;9.318;2023-06-26T14:10:38;4.07;;;3.67;;
1336;SDS011;662;48.814;9.318;2023-06-26T14:13:04;5.95;;;4.20;;
1336;SDS011;662;48.814;9.318;2023-06-26T14:15:30;4.70;;;4.30;;
1336;SDS011;662;48.814;9.318;2023-06-26T14:17:56;3.95;;;3.47;;
1336;SDS011;662;48.814;9.318;2023-06-26T14:20:21;5.43;;;3.90;;
1336;SDS011;662;48.814;9.318;2023-06-26T14:22:48;4.93;;;3.90;;
1336;SDS011;662;48.814;9.318;2023-06-26T14:25:14;4.00;;;3.70;;
1336;SDS011;662;48.814;9.318;2023-06-26T14:27:41;4.00;;;3.70;;
1336;SDS011;662;48.814;9.318;2023-06-26T14:30:07;4.57;;;3.75;;
1336;SDS011;662;48.814;9.318;2023-06-26T14:32:33;3.55;;;3.25;;
1336;SDS011;662;48.814;9.318;2023-06-26T14:35:00;4.88;;;3.20;;
1336;SDS011;662;48.814;9.318;2023-06-26T14:37:26;3.60;;;3.27;;
1336;SDS011;662;48.814;9.318;2023-06-26T14:39:54;3.23;;;2.93;;
1336;SDS011;662;48.814;9.318;2023-06-26T14:42:19;3.10;;;2.83;;
1336;SDS011;662;48.814;9.318;2023-06-26T14:44:45;3.33;;;3.03;;
1336;SDS011;662;48.814;9.318;2023-06-26T14:47:15;3.20;;;2.90;;
1336;SDS011;662;48.814;9.318;2023-06-26T14:49:41;3.60;;;3.30;;
1336;SDS011;662;48.814;9.318;2023-06-26T14:52:07;4.43;;;3.23;;
1336;SDS011;662;48.814;9.318;2023-06-26T14:54:33;3.03;;;2.80;;
1336;SDS011;662;48.814;9.318;2023-06-26T14:57:01;3.10;;;2.90;;
1336;SDS011;662;48.814;9.318;2023-06-26T14:59:27;4.37;;;2.63;;
1336;SDS011;662;48.814;9.318;2023-06-26T15:01:53;3.53;;;3.23;;
1336;SDS011;662;48.814;9.318;2023-06-26T15:04:19;3.73;;;3.40;;
1336;SDS011;662;48.814;9.318;2023-06-26T15:06:44;3.57;;;3.07;;
1336;SDS011;662;48.814;9.318;2023-06-26T15:09:10;3.37;;;3.07;;
1336;SDS011;662;48.814;9.318;2023-06-26T15:11:36;3.23;;;2.93;;
1336;SDS011;662;48.814;9.318;2023-06-26T15:14:02;3.20;;;2.90;;
1336;SDS011;662;48.814;9.318;2023-06-26T15:16:28;4.00;;;3.60;;
1336;SDS011;662;48.814;9.318;2023-06-26T15:18:54;3.20;;;2.90;;
1336;SDS011;662;48.814;9.318;2023-06-26T15:21:19;6.00;;;4.00;;
1336;SDS011;662;48.814;9.318;2023-06-26T15:23:49;3.70;;;3.40;;
1336;SDS011;662;48.814;9.318;2023-06-26T15:26:15;4.30;;;3.87;;
1336;SDS011;662;48.814;9.318;2023-06-26T15:28:41;3.83;;;3.40;;
1336;SDS011;662;48.814;9.318;2023-06-26T15:31:06;3.37;;;3.07;;
1336;SDS011;662;48.814;9.318;2023-06-26T15:33:32;4.10;;;3.70;;
1336;SDS011;662;48.814;9.318;2023-06-26T15:35:58;4.90;;;3.63;;
1336;SDS011;662;48.814;9.318;2023-06-26T15:38:23;4.67;;;3.70;;
1336;SDS011;662;48.814;9.318;2023-06-26T15:40:49;4.50;;;4.10;;
1336;SDS011;662;48.814;9.318;2023-06-26T15:43:15;4.40;;;3.73;;
1336;SDS011;662;48.814;9.318;2023-06-26T15:45:40;4.97;;;4.30;;
1336;SDS011;662;48.814;9.318;2023-06-26T15:48:06;7.47;;;4.47;;